createdAt,value
2023-02-03T00:05:42.432Z,0
2023-02-03T00:12:05.367Z,0
2023-02-03T00:18:25.375Z,0
2023-02-03T00:24:48.325Z,0
2023-02-03T00:31:08.387Z,0
2023-02-03T00:37:31.427Z,0
2023-02-03T00:43:51.378Z,0
2023-02-03T00:50:14.375Z,0
2023-02-03T00:56:34.489Z,0
2023-02-03T01:02:57.472Z,0
2023-02-03T01:09:17.406Z,0
2023-02-03T01:15:40.435Z,0
2023-02-03T01:22:00.446Z,0
2023-02-03T01:28:23.368Z,0
2023-02-03T01:34:43.435Z,0
2023-02-03T01:41:06.407Z,0
2023-02-03T01:47:26.429Z,0
2023-02-03T01:53:49.434Z,0
2023-02-03T02:00:09.536Z,0
2023-02-03T02:06:32.478Z,0
2023-02-03T02:12:52.443Z,0
2023-02-03T02:19:15.373Z,0
2023-02-03T02:25:35.369Z,0
2023-02-03T02:31:58.504Z,0
2023-02-03T02:38:18.480Z,0
2023-02-03T02:44:41.325Z,0
2023-02-03T02:51:01.424Z,0
2023-02-03T02:57:24.354Z,0
2023-02-03T03:03:44.465Z,0
2023-02-03T03:10:07.566Z,0
2023-02-03T03:16:27.502Z,0
2023-02-03T03:22:50.425Z,0
2023-02-03T03:29:10.642Z,0
2023-02-03T03:35:33.371Z,0
2023-02-03T03:41:53.399Z,0
2023-02-03T03:48:16.457Z,0
2023-02-03T03:54:36.397Z,0
2023-02-03T04:00:59.404Z,0
2023-02-03T04:07:19.485Z,0
2023-02-03T04:13:42.463Z,0
2023-02-03T04:20:02.417Z,0
2023-02-03T04:36:12.293Z,0
2023-02-03T04:42:32.403Z,0
2023-02-03T04:48:55.438Z,0
2023-02-03T04:55:15.380Z,0
2023-02-03T05:01:38.399Z,0
2023-02-03T05:07:58.390Z,0
2023-02-03T05:14:21.375Z,0
2023-02-03T05:20:41.366Z,0
2023-02-03T05:27:04.387Z,0
2023-02-03T05:33:24.411Z,0
2023-02-03T05:39:47.389Z,0
2023-02-03T05:46:07.416Z,0
2023-02-03T05:52:30.404Z,0
2023-02-03T05:58:50.373Z,0
2023-02-03T06:05:13.345Z,0
2023-02-03T06:11:33.538Z,0
2023-02-03T06:17:56.406Z,0
2023-02-03T06:24:16.412Z,0
2023-02-03T06:30:39.494Z,0
2023-02-03T06:36:59.398Z,0
2023-02-03T06:43:22.427Z,1
2023-02-03T06:49:42.356Z,2
2023-02-03T06:56:05.396Z,5
2023-02-03T07:02:25.427Z,8
2023-02-03T07:08:48.403Z,15
2023-02-03T07:15:08.428Z,26
2023-02-03T07:21:31.463Z,42
2023-02-03T07:27:51.474Z,59
2023-02-03T07:34:14.431Z,83
2023-02-03T07:40:34.454Z,137
2023-02-03T07:46:57.522Z,126
2023-02-03T07:53:17.387Z,197
2023-02-03T07:59:40.425Z,271
2023-02-03T08:06:00.413Z,224
2023-02-03T08:12:23.399Z,296
2023-02-03T08:18:43.460Z,361
2023-02-03T08:25:06.457Z,419
2023-02-03T08:31:26.494Z,454
2023-02-03T08:37:49.463Z,328
2023-02-03T08:44:09.455Z,598
2023-02-03T08:50:32.442Z,473
2023-02-03T08:56:52.355Z,402
2023-02-03T09:03:15.496Z,457
2023-02-03T09:09:35.404Z,311
2023-02-03T09:15:58.353Z,349
2023-02-03T09:22:18.430Z,352
2023-02-03T09:28:41.329Z,388
2023-02-03T09:35:01.392Z,470
2023-02-03T09:51:30.271Z,531
2023-02-03T09:57:50.367Z,586
2023-02-03T10:04:13.359Z,567
2023-02-03T10:10:33.425Z,568
2023-02-03T10:16:56.452Z,410
2023-02-03T10:23:16.399Z,417
2023-02-03T10:29:39.532Z,445
2023-02-03T10:35:59.371Z,444
2023-02-03T10:42:22.571Z,657
2023-02-03T10:48:42.469Z,807
2023-02-03T10:55:05.366Z,1278
2023-02-03T11:01:25.484Z,1356
2023-02-03T11:07:48.473Z,1477
2023-02-03T11:14:08.547Z,1549
2023-02-03T11:20:31.408Z,1704
2023-02-03T11:26:51.396Z,1621
2023-02-03T11:33:14.466Z,1233
2023-02-03T11:39:34.422Z,1217
2023-02-03T11:45:57.782Z,1254
2023-02-03T11:52:17.403Z,998
2023-02-03T11:58:40.528Z,748
2023-02-03T12:05:01.083Z,899
2023-02-03T12:11:24.049Z,588
2023-02-03T12:17:43.480Z,742
2023-02-03T12:24:06.470Z,543
2023-02-03T12:30:26.876Z,548
2023-02-03T12:36:49.375Z,474
2023-02-03T12:43:09.378Z,429
2023-02-03T12:49:32.424Z,419
2023-02-03T12:55:52.329Z,413
2023-02-03T13:02:15.465Z,621
2023-02-03T13:08:35.376Z,598
2023-02-03T13:14:58.370Z,522
2023-02-03T13:21:18.380Z,460
2023-02-03T13:27:41.389Z,456
2023-02-03T13:34:01.482Z,542
2023-02-03T13:40:24.395Z,466
2023-02-03T13:46:44.527Z,476
2023-02-03T13:53:07.429Z,398
2023-02-03T13:59:27.420Z,329
2023-02-03T14:05:50.377Z,426
2023-02-03T14:12:10.423Z,415
2023-02-03T14:18:33.423Z,415
2023-02-03T14:24:53.522Z,485
2023-02-03T14:31:16.466Z,376
2023-02-03T14:37:36.457Z,480
2023-02-03T14:53:10.337Z,493
2023-02-03T14:59:30.399Z,554
2023-02-03T15:05:53.388Z,756
2023-02-03T15:12:13.421Z,621
2023-02-03T15:18:36.359Z,478
2023-02-03T15:24:56.532Z,374
2023-02-03T15:31:19.701Z,512
2023-02-03T15:37:39.390Z,491
2023-02-03T15:44:02.393Z,229
2023-02-03T15:50:22.400Z,198
2023-02-03T15:56:45.378Z,147
2023-02-03T16:03:05.434Z,77
2023-02-03T16:09:28.433Z,38
2023-02-03T16:15:48.359Z,18
2023-02-03T16:22:11.368Z,6
2023-02-03T16:28:32.462Z,2
2023-02-03T16:34:54.351Z,1
2023-02-03T16:41:14.350Z,0
2023-02-03T16:47:37.445Z,1
2023-02-03T16:53:57.339Z,0
2023-02-03T17:00:20.409Z,0
2023-02-03T17:06:40.355Z,0
2023-02-03T17:13:03.365Z,0
2023-02-03T17:19:23.405Z,0
2023-02-03T17:25:46.380Z,0
2023-02-03T17:32:06.478Z,0
2023-02-03T17:38:29.398Z,0
2023-02-03T17:54:29.382Z,0
2023-02-03T18:00:49.366Z,0
2023-02-03T18:07:12.362Z,0
2023-02-03T18:13:32.357Z,0
2023-02-03T18:19:56.605Z,0
2023-02-03T18:26:15.300Z,0
2023-02-03T18:32:38.329Z,0
2023-02-03T18:38:58.375Z,0
2023-02-03T18:45:21.360Z,0
2023-02-03T18:51:41.336Z,0
2023-02-03T18:58:04.372Z,0
2023-02-03T19:04:24.379Z,0
2023-02-03T19:10:47.394Z,0
2023-02-03T19:17:07.313Z,0
2023-02-03T19:23:30.336Z,0
2023-02-03T19:29:50.397Z,0
2023-02-03T19:36:13.326Z,0
2023-02-03T19:42:33.396Z,0
2023-02-03T19:48:56.376Z,0
2023-02-03T19:55:16.368Z,0
2023-02-03T20:01:39.605Z,0
2023-02-03T20:25:03.392Z,0
2023-02-03T20:31:23.456Z,0
2023-02-03T20:37:46.551Z,0
2023-02-03T20:44:06.353Z,0
2023-02-03T20:50:40.733Z,0
2023-02-03T20:56:49.358Z,0
2023-02-03T21:03:12.378Z,0
2023-02-03T21:09:32.379Z,0
2023-02-03T21:15:55.366Z,0
2023-02-03T21:22:15.446Z,0
2023-02-03T21:28:38.399Z,0
2023-02-03T21:34:58.344Z,0
2023-02-03T21:41:21.497Z,0
2023-02-03T21:47:41.346Z,0
2023-02-03T21:54:04.329Z,0
2023-02-03T22:00:24.435Z,0
2023-02-03T22:06:47.399Z,0
2023-02-03T22:13:07.375Z,0
2023-02-03T22:19:30.381Z,0
2023-02-03T22:25:50.388Z,0
2023-02-03T22:32:13.403Z,0
2023-02-03T22:38:33.364Z,0
2023-02-03T22:44:56.362Z,0
2023-02-03T22:51:16.406Z,0
2023-02-03T22:57:39.411Z,0
2023-02-03T23:20:36.350Z,0
2023-02-03T23:26:56.348Z,0
2023-02-03T23:33:19.319Z,0
2023-02-03T23:39:39.428Z,0
2023-02-03T23:46:02.486Z,0
2023-02-03T23:52:22.360Z,0
2023-02-03T23:58:45.408Z,0
